sensor_id;sensor_type;location;lat;lon;timestamp;temperature;humidity
28546;DHT22;15749;49.606;8.738;2023-07-13T00:00:39;25.30;99.90
28546;DHT22;15749;49.606;8.738;2023-07-13T00:03:35;25.30;99.90
28546;DHT22;15749;49.606;8.738;2023-07-13T00:06:04;25.30;99.90
28546;DHT22;15749;49.606;8.738;2023-07-13T00:08:35;25.30;99.90
28546;DHT22;15749;49.606;8.738;2023-07-13T00:11:06;25.30;99.90
28546;DHT22;15749;49.606;8.738;2023-07-13T00:13:35;25.30;99.90
28546;DHT22;15749;49.606;8.738;2023-07-13T00:16:07;25.20;99.90
28546;DHT22;15749;49.606;8.738;2023-07-13T00:18:38;25.20;99.90
28546;DHT22;15749;49.606;8.738;2023-07-13T00:21:08;25.20;99.90
28546;DHT22;15749;49.606;8.738;2023-07-13T00:23:39;25.20;99.90
28546;DHT22;15749;49.606;8.738;2023-07-13T00:26:12;25.20;99.90
28546;DHT22;15749;49.606;8.738;2023-07-13T00:28:42;25.20;99.90
28546;DHT22;15749;49.606;8.738;2023-07-13T00:31:12;25.20;99.90
28546;DHT22;15749;49.606;8.738;2023-07-13T00:33:43;25.20;99.90
28546;DHT22;15749;49.606;8.738;2023-07-13T00:36:14;25.20;99.90
28546;DHT22;15749;49.606;8.738;2023-07-13T00:38:44;25.20;99.90
28546;DHT22;15749;49.606;8.738;2023-07-13T00:41:15;25.20;99.90
28546;DHT22;15749;49.606;8.738;2023-07-13T00:43:44;25.20;99.90
28546;DHT22;15749;49.606;8.738;2023-07-13T00:46:21;25.20;99.90
28546;DHT22;15749;49.606;8.738;2023-07-13T00:48:54;25.20;99.90
28546;DHT22;15749;49.606;8.738;2023-07-13T00:51:30;25.20;99.90
28546;DHT22;15749;49.606;8.738;2023-07-13T00:54:05;25.20;99.90
28546;DHT22;15749;49.606;8.738;2023-07-13T00:56:38;25.20;99.90
28546;DHT22;15749;49.606;8.738;2023-07-13T00:59:15;25.20;99.90
28546;DHT22;15749;49.606;8.738;2023-07-13T01:02:05;25.20;99.90
28546;DHT22;15749;49.606;8.738;2023-07-13T01:04:35;25.20;99.90
28546;DHT22;15749;49.606;8.738;2023-07-13T01:07:07;25.20;99.90
28546;DHT22;15749;49.606;8.738;2023-07-13T01:09:36;25.20;99.90
28546;DHT22;15749;49.606;8.738;2023-07-13T01:12:08;25.20;99.90
28546;DHT22;15749;49.606;8.738;2023-07-13T01:14:38;25.20;99.90
28546;DHT22;15749;49.606;8.738;2023-07-13T01:17:10;25.20;99.90
28546;DHT22;15749;49.606;8.738;2023-07-13T01:19:42;25.10;99.90
28546;DHT22;15749;49.606;8.738;2023-07-13T01:22:16;25.10;99.90
28546;DHT22;15749;49.606;8.738;2023-07-13T01:25:06;25.10;99.90
28546;DHT22;15749;49.606;8.738;2023-07-13T01:27:36;25.10;99.90
28546;DHT22;15749;49.606;8.738;2023-07-13T01:30:10;25.10;99.90
28546;DHT22;15749;49.606;8.738;2023-07-13T01:32:40;25.10;99.90
28546;DHT22;15749;49.606;8.738;2023-07-13T01:35:10;25.10;99.90
28546;DHT22;15749;49.606;8.738;2023-07-13T01:37:42;25.10;99.90
28546;DHT22;15749;49.606;8.738;2023-07-13T01:40:13;25.10;99.90
28546;DHT22;15749;49.606;8.738;2023-07-13T01:42:42;25.00;99.90
28546;DHT22;15749;49.606;8.738;2023-07-13T01:45:12;25.00;99.90
28546;DHT22;15749;49.606;8.738;2023-07-13T01:47:42;25.00;99.90
28546;DHT22;15749;49.606;8.738;2023-07-13T01:50:13;25.00;99.90
28546;DHT22;15749;49.606;8.738;2023-07-13T01:52:44;25.00;99.90
28546;DHT22;15749;49.606;8.738;2023-07-13T01:55:14;25.00;99.90
28546;DHT22;15749;49.606;8.738;2023-07-13T01:57:44;25.00;99.90
28546;DHT22;15749;49.606;8.738;2023-07-13T02:00:14;25.00;99.90
28546;DHT22;15749;49.606;8.738;2023-07-13T02:02:47;24.90;99.90
28546;DHT22;15749;49.606;8.738;2023-07-13T02:05:18;24.90;99.90
28546;DHT22;15749;49.606;8.738;2023-07-13T02:07:49;24.90;99.90
28546;DHT22;15749;49.606;8.738;2023-07-13T02:10:20;24.90;99.90
28546;DHT22;15749;49.606;8.738;2023-07-13T02:12:50;24.90;99.90
28546;DHT22;15749;49.606;8.738;2023-07-13T02:15:20;24.90;99.90
28546;DHT22;15749;49.606;8.738;2023-07-13T02:17:50;24.90;99.90
28546;DHT22;15749;49.606;8.738;2023-07-13T02:20:20;24.90;99.90
28546;DHT22;15749;49.606;8.738;2023-07-13T02:22:51;24.80;99.90
28546;DHT22;15749;49.606;8.738;2023-07-13T02:25:21;24.80;99.90
28546;DHT22;15749;49.606;8.738;2023-07-13T02:27:51;24.80;99.90
28546;DHT22;15749;49.606;8.738;2023-07-13T02:30:20;24.80;99.90
28546;DHT22;15749;49.606;8.738;2023-07-13T02:32:54;24.70;99.90
28546;DHT22;15749;49.606;8.738;2023-07-13T02:35:24;24.70;99.90
28546;DHT22;15749;49.606;8.738;2023-07-13T02:37:55;24.70;99.90
28546;DHT22;15749;49.606;8.738;2023-07-13T02:40:25;24.70;99.90
28546;DHT22;15749;49.606;8.738;2023-07-13T02:42:54;24.70;99.90
28546;DHT22;15749;49.606;8.738;2023-07-13T02:45:24;24.70;99.90
28546;DHT22;15749;49.606;8.738;2023-07-13T02:47:53;24.60;99.90
28546;DHT22;15749;49.606;8.738;2023-07-13T02:50:23;24.60;99.90
28546;DHT22;15749;49.606;8.738;2023-07-13T02:52:54;24.60;99.90
28546;DHT22;15749;49.606;8.738;2023-07-13T02:55:24;24.60;99.90
28546;DHT22;15749;49.606;8.738;2023-07-13T02:57:53;24.60;99.90
28546;DHT22;15749;49.606;8.738;2023-07-13T03:00:23;24.60;99.90
28546;DHT22;15749;49.606;8.738;2023-07-13T03:02:53;24.50;99.90
28546;DHT22;15749;49.606;8.738;2023-07-13T03:05:26;24.50;99.90
28546;DHT22;15749;49.606;8.738;2023-07-13T03:07:58;24.50;99.90
28546;DHT22;15749;49.606;8.738;2023-07-13T03:10:29;24.40;99.90
28546;DHT22;15749;49.606;8.738;2023-07-13T03:13:00;24.40;99.90
28546;DHT22;15749;49.606;8.738;2023-07-13T03:15:30;24.40;99.90
28546;DHT22;15749;49.606;8.738;2023-07-13T03:18:00;24.40;99.90
28546;DHT22;15749;49.606;8.738;2023-07-13T03:20:32;24.40;99.90
28546;DHT22;15749;49.606;8.738;2023-07-13T03:23:04;24.40;99.90
28546;DHT22;15749;49.606;8.738;2023-07-13T03:25:34;24.40;99.90
28546;DHT22;15749;49.606;8.738;2023-07-13T03:28:04;24.30;99.90
28546;DHT22;15749;49.606;8.738;2023-07-13T03:30:34;24.30;99.90
28546;DHT22;15749;49.606;8.738;2023-07-13T03:33:03;24.30;99.90
28546;DHT22;15749;49.606;8.738;2023-07-13T03:35:35;24.30;99.90
28546;DHT22;15749;49.606;8.738;2023-07-13T03:38:11;24.30;99.90
28546;DHT22;15749;49.606;8.738;2023-07-13T03:40:40;24.30;99.90
28546;DHT22;15749;49.606;8.738;2023-07-13T03:43:12;24.20;99.90
28546;DHT22;15749;49.606;8.738;2023-07-13T03:45:42;24.20;99.90
28546;DHT22;15749;49.606;8.738;2023-07-13T03:48:12;24.20;99.90
28546;DHT22;15749;49.606;8.738;2023-07-13T03:50:42;24.20;99.90
28546;DHT22;15749;49.606;8.738;2023-07-13T03:53:13;24.20;99.90
28546;DHT22;15749;49.606;8.738;2023-07-13T03:55:42;24.10;99.90
28546;DHT22;15749;49.606;8.738;2023-07-13T03:58:30;24.10;99.90
28546;DHT22;15749;49.606;8.738;2023-07-13T04:01:11;24.10;99.90
28546;DHT22;15749;49.606;8.738;2023-07-13T04:03:43;24.10;99.90
28546;DHT22;15749;49.606;8.738;2023-07-13T04:06:16;24.10;99.90
28546;DHT22;15749;49.606;8.738;2023-07-13T04:08:52;24.00;99.90
28546;DHT22;15749;49.606;8.738;2023-07-13T04:11:24;24.00;99.90
28546;DHT22;15749;49.606;8.738;2023-07-13T04:13:56;24.00;99.90
28546;DHT22;15749;49.606;8.738;2023-07-13T04:16:26;24.00;99.90
28546;DHT22;15749;49.606;8.738;2023-07-13T04:18:56;24.00;99.90
28546;DHT22;15749;49.606;8.738;2023-07-13T04:21:30;24.00;99.90
28546;DHT22;15749;49.606;8.738;2023-07-13T04:24:02;23.90;99.90
28546;DHT22;15749;49.606;8.738;2023-07-13T04:26:32;23.90;99.90
28546;DHT22;15749;49.606;8.738;2023-07-13T04:29:04;23.90;99.90
28546;DHT22;15749;49.606;8.738;2023-07-13T04:31:34;23.90;99.90
28546;DHT22;15749;49.606;8.738;2023-07-13T04:34:04;23.80;99.90
28546;DHT22;15749;49.606;8.738;2023-07-13T04:36:35;23.80;99.90
28546;DHT22;15749;49.606;8.738;2023-07-13T04:39:07;23.80;99.90
28546;DHT22;15749;49.606;8.738;2023-07-13T04:41:37;23.80;99.90
28546;DHT22;15749;49.606;8.738;2023-07-13T04:44:07;23.80;99.90
28546;DHT22;15749;49.606;8.738;2023-07-13T04:46:36;23.80;99.90
28546;DHT22;15749;49.606;8.738;2023-07-13T04:49:06;23.80;99.90
28546;DHT22;15749;49.606;8.738;2023-07-13T04:51:36;23.70;99.90
28546;DHT22;15749;49.606;8.738;2023-07-13T04:54:07;23.70;99.90
28546;DHT22;15749;49.606;8.738;2023-07-13T04:56:36;23.70;99.90
28546;DHT22;15749;49.606;8.738;2023-07-13T04:59:05;23.70;99.90
28546;DHT22;15749;49.606;8.738;2023-07-13T05:01:35;23.70;99.90
28546;DHT22;15749;49.606;8.738;2023-07-13T05:04:04;23.70;99.90
28546;DHT22;15749;49.606;8.738;2023-07-13T05:06:34;23.70;99.90
28546;DHT22;15749;49.606;8.738;2023-07-13T05:09:03;23.70;99.90
28546;DHT22;15749;49.606;8.738;2023-07-13T05:11:35;23.70;99.90
28546;DHT22;15749;49.606;8.738;2023-07-13T05:14:04;23.70;99.90
28546;DHT22;15749;49.606;8.738;2023-07-13T05:16:34;23.70;99.90
28546;DHT22;15749;49.606;8.738;2023-07-13T05:19:03;23.70;99.90
28546;DHT22;15749;49.606;8.738;2023-07-13T05:21:33;23.70;99.90
28546;DHT22;15749;49.606;8.738;2023-07-13T05:24:02;23.70;99.90
28546;DHT22;15749;49.606;8.738;2023-07-13T05:26:47;23.70;99.90
28546;DHT22;15749;49.606;8.738;2023-07-13T05:29:17;23.70;99.90
28546;DHT22;15749;49.606;8.738;2023-07-13T05:31:46;23.60;99.90
28546;DHT22;15749;49.606;8.738;2023-07-13T05:34:16;23.60;99.90
28546;DHT22;15749;49.606;8.738;2023-07-13T05:36:45;23.60;99.90
28546;DHT22;15749;49.606;8.738;2023-07-13T05:39:15;23.60;99.90
28546;DHT22;15749;49.606;8.738;2023-07-13T05:41:44;23.60;99.90
28546;DHT22;15749;49.606;8.738;2023-07-13T05:44:15;23.60;99.90
28546;DHT22;15749;49.606;8.738;2023-07-13T05:46:45;23.60;99.90
28546;DHT22;15749;49.606;8.738;2023-07-13T05:49:15;23.60;99.90
28546;DHT22;15749;49.606;8.738;2023-07-13T05:51:44;23.60;99.90
28546;DHT22;15749;49.606;8.738;2023-07-13T05:54:13;23.50;99.90
28546;DHT22;15749;49.606;8.738;2023-07-13T05:56:43;23.60;99.90
28546;DHT22;15749;49.606;8.738;2023-07-13T05:59:12;23.60;99.90
28546;DHT22;15749;49.606;8.738;2023-07-13T06:01:43;23.60;99.90
28546;DHT22;15749;49.606;8.738;2023-07-13T06:04:13;23.50;99.90
28546;DHT22;15749;49.606;8.738;2023-07-13T06:06:42;23.60;99.90
28546;DHT22;15749;49.606;8.738;2023-07-13T06:09:12;23.50;99.90
28546;DHT22;15749;49.606;8.738;2023-07-13T06:11:42;23.60;99.90
28546;DHT22;15749;49.606;8.738;2023-07-13T06:14:12;23.60;99.90
28546;DHT22;15749;49.606;8.738;2023-07-13T06:16:43;23.60;99.90
28546;DHT22;15749;49.606;8.738;2023-07-13T06:19:13;23.60;99.90
28546;DHT22;15749;49.606;8.738;2023-07-13T06:21:42;23.60;99.90
28546;DHT22;15749;49.606;8.738;2023-07-13T06:24:12;23.60;99.90
28546;DHT22;15749;49.606;8.738;2023-07-13T06:26:41;23.60;99.90
28546;DHT22;15749;49.606;8.738;2023-07-13T06:29:11;23.60;99.90
28546;DHT22;15749;49.606;8.738;2023-07-13T06:31:40;23.60;99.90
28546;DHT22;15749;49.606;8.738;2023-07-13T06:34:11;23.60;99.90
28546;DHT22;15749;49.606;8.738;2023-07-13T06:36:43;23.60;99.90
28546;DHT22;15749;49.606;8.738;2023-07-13T06:39:13;23.70;99.90
28546;DHT22;15749;49.606;8.738;2023-07-13T06:41:43;23.70;99.90
28546;DHT22;15749;49.606;8.738;2023-07-13T06:44:14;23.70;99.90
28546;DHT22;15749;49.606;8.738;2023-07-13T06:46:44;23.70;99.90
28546;DHT22;15749;49.606;8.738;2023-07-13T06:49:16;23.70;99.90
28546;DHT22;15749;49.606;8.738;2023-07-13T06:51:46;23.70;99.90
28546;DHT22;15749;49.606;8.738;2023-07-13T06:54:15;23.70;99.90
28546;DHT22;15749;49.606;8.738;2023-07-13T06:56:45;23.70;99.90
28546;DHT22;15749;49.606;8.738;2023-07-13T06:59:14;23.80;99.90
28546;DHT22;15749;49.606;8.738;2023-07-13T07:01:45;23.80;99.90
28546;DHT22;15749;49.606;8.738;2023-07-13T07:04:16;23.70;99.90
28546;DHT22;15749;49.606;8.738;2023-07-13T07:06:45;23.80;99.90
28546;DHT22;15749;49.606;8.738;2023-07-13T07:09:15;23.80;99.90
28546;DHT22;15749;49.606;8.738;2023-07-13T07:11:45;23.80;99.90
28546;DHT22;15749;49.606;8.738;2023-07-13T07:14:30;23.80;99.90
28546;DHT22;15749;49.606;8.738;2023-07-13T07:16:59;23.90;99.90
28546;DHT22;15749;49.606;8.738;2023-07-13T07:19:31;23.90;99.90
28546;DHT22;15749;49.606;8.738;2023-07-13T07:22:00;23.90;99.90
28546;DHT22;15749;49.606;8.738;2023-07-13T07:24:30;23.90;99.90
28546;DHT22;15749;49.606;8.738;2023-07-13T07:27:00;23.90;99.90
28546;DHT22;15749;49.606;8.738;2023-07-13T07:29:32;24.00;99.90
28546;DHT22;15749;49.606;8.738;2023-07-13T07:32:05;24.00;99.90
28546;DHT22;15749;49.606;8.738;2023-07-13T07:34:46;24.00;99.90
28546;DHT22;15749;49.606;8.738;2023-07-13T07:37:16;24.00;99.90
28546;DHT22;15749;49.606;8.738;2023-07-13T07:39:48;24.10;99.90
28546;DHT22;15749;49.606;8.738;2023-07-13T07:42:38;24.10;99.90
28546;DHT22;15749;49.606;8.738;2023-07-13T07:45:07;24.20;99.90
28546;DHT22;15749;49.606;8.738;2023-07-13T07:47:39;24.20;99.90
28546;DHT22;15749;49.606;8.738;2023-07-13T07:50:10;24.20;99.90
28546;DHT22;15749;49.606;8.738;2023-07-13T07:52:40;24.30;99.90
28546;DHT22;15749;49.606;8.738;2023-07-13T07:55:10;24.30;99.90
28546;DHT22;15749;49.606;8.738;2023-07-13T07:57:42;24.40;99.90
28546;DHT22;15749;49.606;8.738;2023-07-13T08:00:16;24.40;99.90
28546;DHT22;15749;49.606;8.738;2023-07-13T08:02:49;24.40;99.90
28546;DHT22;15749;49.606;8.738;2023-07-13T08:05:22;24.50;99.90
28546;DHT22;15749;49.606;8.738;2023-07-13T08:08:09;24.50;99.90
28546;DHT22;15749;49.606;8.738;2023-07-13T08:10:39;24.60;99.90
28546;DHT22;15749;49.606;8.738;2023-07-13T08:13:08;24.60;99.90
28546;DHT22;15749;49.606;8.738;2023-07-13T08:15:39;24.60;99.90
28546;DHT22;15749;49.606;8.738;2023-07-13T08:18:08;24.70;99.90
28546;DHT22;15749;49.606;8.738;2023-07-13T08:20:39;24.70;99.90
28546;DHT22;15749;49.606;8.738;2023-07-13T08:23:11;24.70;99.90
28546;DHT22;15749;49.606;8.738;2023-07-13T08:25:41;24.80;99.90
28546;DHT22;15749;49.606;8.738;2023-07-13T08:28:10;24.80;99.90
28546;DHT22;15749;49.606;8.738;2023-07-13T08:30:39;24.80;99.90
28546;DHT22;15749;49.606;8.738;2023-07-13T08:33:09;24.90;99.90
28546;DHT22;15749;49.606;8.738;2023-07-13T08:35:40;24.90;99.90
28546;DHT22;15749;49.606;8.738;2023-07-13T08:38:09;24.90;99.90
28546;DHT22;15749;49.606;8.738;2023-07-13T08:40:39;24.90;99.90
28546;DHT22;15749;49.606;8.738;2023-07-13T08:43:16;25.00;99.90
28546;DHT22;15749;49.606;8.738;2023-07-13T08:45:49;25.00;99.90
28546;DHT22;15749;49.606;8.738;2023-07-13T08:48:24;25.10;99.90
28546;DHT22;15749;49.606;8.738;2023-07-13T08:50:59;25.10;99.90
28546;DHT22;15749;49.606;8.738;2023-07-13T08:53:38;25.20;99.90
28546;DHT22;15749;49.606;8.738;2023-07-13T08:56:14;25.20;99.90
28546;DHT22;15749;49.606;8.738;2023-07-13T08:58:48;25.30;99.90
28546;DHT22;15749;49.606;8.738;2023-07-13T09:01:29;25.30;99.90
28546;DHT22;15749;49.606;8.738;2023-07-13T09:04:05;25.30;99.90
28546;DHT22;15749;49.606;8.738;2023-07-13T09:09:44;25.50;99.90
28546;DHT22;15749;49.606;8.738;2023-07-13T09:12:26;25.50;99.90
28546;DHT22;15749;49.606;8.738;2023-07-13T09:15:02;25.50;99.90
28546;DHT22;15749;49.606;8.738;2023-07-13T09:17:38;25.50;99.90
28546;DHT22;15749;49.606;8.738;2023-07-13T09:20:25;25.60;99.90
28546;DHT22;15749;49.606;8.738;2023-07-13T09:22:59;25.60;99.90
28546;DHT22;15749;49.606;8.738;2023-07-13T09:25:33;25.70;99.90
28546;DHT22;15749;49.606;8.738;2023-07-13T09:28:12;25.70;99.90
28546;DHT22;15749;49.606;8.738;2023-07-13T09:30:49;25.70;99.90
28546;DHT22;15749;49.606;8.738;2023-07-13T09:33:22;25.70;99.90
28546;DHT22;15749;49.606;8.738;2023-07-13T09:35:51;25.80;99.90
28546;DHT22;15749;49.606;8.738;2023-07-13T09:38:27;25.80;99.90
28546;DHT22;15749;49.606;8.738;2023-07-13T09:41:04;25.80;99.90
28546;DHT22;15749;49.606;8.738;2023-07-13T09:44:02;25.80;99.90
28546;DHT22;15749;49.606;8.738;2023-07-13T09:46:40;25.80;99.90
28546;DHT22;15749;49.606;8.738;2023-07-13T09:49:13;25.90;99.90
28546;DHT22;15749;49.606;8.738;2023-07-13T09:51:43;26.00;99.90
28546;DHT22;15749;49.606;8.738;2023-07-13T09:54:24;26.00;99.90
28546;DHT22;15749;49.606;8.738;2023-07-13T09:56:55;26.00;99.90
28546;DHT22;15749;49.606;8.738;2023-07-13T09:59:29;26.00;99.90
28546;DHT22;15749;49.606;8.738;2023-07-13T10:02:01;26.00;99.90
28546;DHT22;15749;49.606;8.738;2023-07-13T10:04:34;26.10;99.90
28546;DHT22;15749;49.606;8.738;2023-07-13T10:07:08;26.10;99.90
28546;DHT22;15749;49.606;8.738;2023-07-13T10:09:59;26.10;99.90
28546;DHT22;15749;49.606;8.738;2023-07-13T10:12:35;26.10;99.90
28546;DHT22;15749;49.606;8.738;2023-07-13T10:15:15;26.10;99.90
28546;DHT22;15749;49.606;8.738;2023-07-13T10:17:52;26.20;99.90
28546;DHT22;15749;49.606;8.738;2023-07-13T10:20:23;26.20;99.90
28546;DHT22;15749;49.606;8.738;2023-07-13T10:22:57;26.10;99.90
28546;DHT22;15749;49.606;8.738;2023-07-13T10:25:32;26.20;99.90
28546;DHT22;15749;49.606;8.738;2023-07-13T10:28:14;26.10;99.90
28546;DHT22;15749;49.606;8.738;2023-07-13T10:30:50;26.20;99.90
28546;DHT22;15749;49.606;8.738;2023-07-13T10:33:22;26.20;99.90
28546;DHT22;15749;49.606;8.738;2023-07-13T10:35:57;26.20;99.90
28546;DHT22;15749;49.606;8.738;2023-07-13T10:38:31;26.20;99.90
28546;DHT22;15749;49.606;8.738;2023-07-13T10:41:05;26.20;99.90
28546;DHT22;15749;49.606;8.738;2023-07-13T10:43:42;26.20;99.90
28546;DHT22;15749;49.606;8.738;2023-07-13T10:46:14;26.20;99.90
28546;DHT22;15749;49.606;8.738;2023-07-13T10:48:48;26.20;99.90
28546;DHT22;15749;49.606;8.738;2023-07-13T10:51:19;26.20;99.90
28546;DHT22;15749;49.606;8.738;2023-07-13T10:54:11;26.20;99.90
28546;DHT22;15749;49.606;8.738;2023-07-13T10:57:17;26.20;99.90
28546;DHT22;15749;49.606;8.738;2023-07-13T10:59:49;26.20;99.90
28546;DHT22;15749;49.606;8.738;2023-07-13T11:02:43;26.20;99.90
28546;DHT22;15749;49.606;8.738;2023-07-13T11:05:29;26.20;99.90
28546;DHT22;15749;49.606;8.738;2023-07-13T11:08:19;26.20;99.90
28546;DHT22;15749;49.606;8.738;2023-07-13T11:10:53;26.20;99.90
28546;DHT22;15749;49.606;8.738;2023-07-13T11:13:56;26.20;99.90
28546;DHT22;15749;49.606;8.738;2023-07-13T11:16:48;26.20;99.90
28546;DHT22;15749;49.606;8.738;2023-07-13T11:19:39;26.20;99.90
28546;DHT22;15749;49.606;8.738;2023-07-13T11:22:21;26.20;99.90
28546;DHT22;15749;49.606;8.738;2023-07-13T11:25:01;26.20;99.90
28546;DHT22;15749;49.606;8.738;2023-07-13T11:27:38;26.20;99.90
28546;DHT22;15749;49.606;8.738;2023-07-13T11:30:32;26.20;99.90
28546;DHT22;15749;49.606;8.738;2023-07-13T11:33:13;26.30;99.90
28546;DHT22;15749;49.606;8.738;2023-07-13T11:36:05;26.20;99.90
28546;DHT22;15749;49.606;8.738;2023-07-13T11:38:38;26.20;99.90
28546;DHT22;15749;49.606;8.738;2023-07-13T11:41:15;26.20;99.90
28546;DHT22;15749;49.606;8.738;2023-07-13T11:43:49;26.20;99.90
28546;DHT22;15749;49.606;8.738;2023-07-13T11:46:22;26.20;99.90
28546;DHT22;15749;49.606;8.738;2023-07-13T11:48:53;26.20;99.90
28546;DHT22;15749;49.606;8.738;2023-07-13T11:51:25;26.20;99.90
28546;DHT22;15749;49.606;8.738;2023-07-13T11:53:56;26.30;99.90
28546;DHT22;15749;49.606;8.738;2023-07-13T11:56:29;26.20;99.90
28546;DHT22;15749;49.606;8.738;2023-07-13T11:59:06;26.20;99.90
28546;DHT22;15749;49.606;8.738;2023-07-13T12:01:43;26.30;99.90
28546;DHT22;15749;49.606;8.738;2023-07-13T12:04:26;26.20;99.90
28546;DHT22;15749;49.606;8.738;2023-07-13T12:06:57;26.30;99.90
28546;DHT22;15749;49.606;8.738;2023-07-13T12:09:34;26.30;99.90
28546;DHT22;15749;49.606;8.738;2023-07-13T12:12:11;26.30;99.90
28546;DHT22;15749;49.606;8.738;2023-07-13T12:14:41;26.30;99.90
28546;DHT22;15749;49.606;8.738;2023-07-13T12:17:16;26.30;99.90
28546;DHT22;15749;49.606;8.738;2023-07-13T12:19:48;26.30;99.90
28546;DHT22;15749;49.606;8.738;2023-07-13T12:22:19;26.30;99.90
28546;DHT22;15749;49.606;8.738;2023-07-13T12:24:53;26.30;99.90
28546;DHT22;15749;49.606;8.738;2023-07-13T12:27:25;26.40;99.90
28546;DHT22;15749;49.606;8.738;2023-07-13T12:29:59;26.30;99.90
28546;DHT22;15749;49.606;8.738;2023-07-13T12:32:36;26.40;99.90
28546;DHT22;15749;49.606;8.738;2023-07-13T12:35:15;26.40;99.90
28546;DHT22;15749;49.606;8.738;2023-07-13T12:37:51;26.40;99.90
28546;DHT22;15749;49.606;8.738;2023-07-13T12:40:21;26.40;99.90
28546;DHT22;15749;49.606;8.738;2023-07-13T12:42:54;26.40;99.90
28546;DHT22;15749;49.606;8.738;2023-07-13T12:45:26;26.40;99.90
28546;DHT22;15749;49.606;8.738;2023-07-13T12:47:59;26.50;99.90
28546;DHT22;15749;49.606;8.738;2023-07-13T12:50:38;26.50;99.90
28546;DHT22;15749;49.606;8.738;2023-07-13T12:53:13;26.50;99.90
28546;DHT22;15749;49.606;8.738;2023-07-13T12:55:46;26.50;99.90
28546;DHT22;15749;49.606;8.738;2023-07-13T12:58:21;26.50;99.90
28546;DHT22;15749;49.606;8.738;2023-07-13T13:00:56;26.50;99.90
28546;DHT22;15749;49.606;8.738;2023-07-13T13:03:32;26.60;99.90
28546;DHT22;15749;49.606;8.738;2023-07-13T13:06:03;26.60;99.90
28546;DHT22;15749;49.606;8.738;2023-07-13T13:08:34;26.60;99.90
28546;DHT22;15749;49.606;8.738;2023-07-13T13:11:04;26.60;99.90
28546;DHT22;15749;49.606;8.738;2023-07-13T13:13:33;26.60;99.90
28546;DHT22;15749;49.606;8.738;2023-07-13T13:16:09;26.60;99.90
28546;DHT22;15749;49.606;8.738;2023-07-13T13:18:52;26.60;99.90
28546;DHT22;15749;49.606;8.738;2023-07-13T13:21:23;26.60;99.90
28546;DHT22;15749;49.606;8.738;2023-07-13T13:23:52;26.60;99.90
28546;DHT22;15749;49.606;8.738;2023-07-13T13:26:22;26.60;99.90
28546;DHT22;15749;49.606;8.738;2023-07-13T13:28:51;26.60;99.90
28546;DHT22;15749;49.606;8.738;2023-07-13T13:31:21;26.60;99.90
28546;DHT22;15749;49.606;8.738;2023-07-13T13:33:51;26.60;99.90
28546;DHT22;15749;49.606;8.738;2023-07-13T13:36:22;26.60;99.90
28546;DHT22;15749;49.606;8.738;2023-07-13T13:38:52;26.60;99.90
28546;DHT22;15749;49.606;8.738;2023-07-13T13:41:21;26.60;99.90
28546;DHT22;15749;49.606;8.738;2023-07-13T13:43:50;26.70;99.90
28546;DHT22;15749;49.606;8.738;2023-07-13T13:46:20;26.70;99.90
28546;DHT22;15749;49.606;8.738;2023-07-13T13:48:54;26.70;99.90
28546;DHT22;15749;49.606;8.738;2023-07-13T13:51:26;26.70;99.90
28546;DHT22;15749;49.606;8.738;2023-07-13T13:53:55;26.70;99.90
28546;DHT22;15749;49.606;8.738;2023-07-13T13:56:25;26.70;99.90
28546;DHT22;15749;49.606;8.738;2023-07-13T13:58:54;26.70;99.90
28546;DHT22;15749;49.606;8.738;2023-07-13T14:01:27;26.70;99.90
28546;DHT22;15749;49.606;8.738;2023-07-13T14:03:58;26.70;99.90
28546;DHT22;15749;49.606;8.738;2023-07-13T14:06:30;26.70;99.90
28546;DHT22;15749;49.606;8.738;2023-07-13T14:08:59;26.70;99.90
28546;DHT22;15749;49.606;8.738;2023-07-13T14:11:30;26.70;99.90
28546;DHT22;15749;49.606;8.738;2023-07-13T14:14:01;26.70;99.90
28546;DHT22;15749;49.606;8.738;2023-07-13T14:16:33;26.80;99.90
28546;DHT22;15749;49.606;8.738;2023-07-13T14:19:04;26.80;99.90
28546;DHT22;15749;49.606;8.738;2023-07-13T14:21:33;26.70;99.90
28546;DHT22;15749;49.606;8.738;2023-07-13T14:24:02;26.80;99.90
28546;DHT22;15749;49.606;8.738;2023-07-13T14:26:36;26.80;99.90
28546;DHT22;15749;49.606;8.738;2023-07-13T14:29:13;26.80;99.90
28546;DHT22;15749;49.606;8.738;2023-07-13T14:31:45;26.80;99.90
28546;DHT22;15749;49.606;8.738;2023-07-13T14:34:16;26.80;99.90
28546;DHT22;15749;49.606;8.738;2023-07-13T14:36:47;26.80;99.90
28546;DHT22;15749;49.606;8.738;2023-07-13T14:39:20;26.80;99.90
28546;DHT22;15749;49.606;8.738;2023-07-13T14:41:51;26.80;99.90
28546;DHT22;15749;49.606;8.738;2023-07-13T14:44:24;26.80;99.90
28546;DHT22;15749;49.606;8.738;2023-07-13T14:46:57;26.80;99.90
28546;DHT22;15749;49.606;8.738;2023-07-13T14:49:31;26.90;99.90
28546;DHT22;15749;49.606;8.738;2023-07-13T14:52:05;26.90;99.90
28546;DHT22;15749;49.606;8.738;2023-07-13T14:54:39;26.90;99.90
28546;DHT22;15749;49.606;8.738;2023-07-13T14:57:11;26.90;99.90
28546;DHT22;15749;49.606;8.738;2023-07-13T14:59:41;26.90;99.90
28546;DHT22;15749;49.606;8.738;2023-07-13T15:02:15;26.90;99.90
28546;DHT22;15749;49.606;8.738;2023-07-13T15:04:47;26.90;99.90
28546;DHT22;15749;49.606;8.738;2023-07-13T15:07:16;26.90;99.90
28546;DHT22;15749;49.606;8.738;2023-07-13T15:09:46;26.90;99.90
28546;DHT22;15749;49.606;8.738;2023-07-13T15:12:16;26.90;99.90
28546;DHT22;15749;49.606;8.738;2023-07-13T15:14:45;27.00;99.90
28546;DHT22;15749;49.606;8.738;2023-07-13T15:17:24;26.90;99.90
28546;DHT22;15749;49.606;8.738;2023-07-13T15:19:57;26.90;99.90
28546;DHT22;15749;49.606;8.738;2023-07-13T15:22:27;27.00;99.90
28546;DHT22;15749;49.606;8.738;2023-07-13T15:24:56;27.00;99.90
28546;DHT22;15749;49.606;8.738;2023-07-13T15:27:29;27.00;99.90
28546;DHT22;15749;49.606;8.738;2023-07-13T15:29:59;27.00;99.90
28546;DHT22;15749;49.606;8.738;2023-07-13T15:32:28;27.00;99.90
28546;DHT22;15749;49.606;8.738;2023-07-13T15:34:59;27.00;99.90
28546;DHT22;15749;49.606;8.738;2023-07-13T15:37:28;27.00;99.90
28546;DHT22;15749;49.606;8.738;2023-07-13T15:39:57;27.00;99.90
28546;DHT22;15749;49.606;8.738;2023-07-13T15:42:27;27.00;99.90
28546;DHT22;15749;49.606;8.738;2023-07-13T15:44:56;27.00;99.90
28546;DHT22;15749;49.606;8.738;2023-07-13T15:47:25;27.00;99.90
28546;DHT22;15749;49.606;8.738;2023-07-13T15:49:55;27.00;99.90
28546;DHT22;15749;49.606;8.738;2023-07-13T15:52:28;27.00;99.90
28546;DHT22;15749;49.606;8.738;2023-07-13T15:54:59;27.00;99.90
28546;DHT22;15749;49.606;8.738;2023-07-13T15:57:29;27.00;99.90
28546;DHT22;15749;49.606;8.738;2023-07-13T15:59:58;27.00;99.90
28546;DHT22;15749;49.606;8.738;2023-07-13T16:02:27;27.00;99.90
28546;DHT22;15749;49.606;8.738;2023-07-13T16:04:57;27.00;99.90
28546;DHT22;15749;49.606;8.738;2023-07-13T16:07:27;27.00;99.90